Utinga, Brazil
Current Conditions -  °F | °C
As of 1:00 PM on Wednesday 28 Jan 2015 (Local Time) from SBPL Reporting Station
Clear Clear  
Wind Chill: 93°   Ceiling: Unl
Heat Index: 93°   Visibility: 6mi
Dew Point: 61°   Wind: 9mph
Humidity: 34%   Direction: 80°E
Pressure: 29.91"   Gusts: NA
Location:  12.08°S, 41.09°W
Report Text: SBPL 281600Z 08008KT CAVOK 34/16 Q1013
Loading
Personal Weather Stations






























Interactive Weather Map New forecast layout! Learn more

10-Day Weather Forecast

Advertisements
Track Severe Weather on mobile